Time;durP1;ratioP1;P1;durP2;ratioP2;P2;SDS_P1;SDS_P2;PMS_P1;PMS_P2;Temp;Humidity;BMP_temperature;BMP_pressure;BME280_temperature;BME280_humidity;BME280_pressure;Samples;Min_cycle;Max_cycle;Signal;HPM_P1;HPM_P2
2022/06/14 00:01:09;;;;;;;10.00;5.80;;;16.60;64.50;;;;;;5108628;28;20514;-74
2022/06/14 00:03:39;;;;;;;9.07;5.17;;;16.50;64.50;;;;;;5106007;28;20490;-73
2022/06/14 00:06:11;;;;;;;10.50;5.60;;;16.50;64.40;;;;;;5109174;28;20456;-73
2022/06/14 00:08:39;;;;;;;10.00;5.80;;;16.40;64.40;;;;;;5102575;28;20860;-72
2022/06/14 00:11:10;;;;;;;12.40;6.63;;;16.40;64.40;;;;;;5105269;28;20829;-72
2022/06/14 00:13:40;;;;;;;9.70;5.40;;;16.30;64.60;;;;;;5110703;28;20980;-73
2022/06/14 00:16:09;;;;;;;9.10;4.90;;;16.30;64.70;;;;;;5110677;28;20876;-73
2022/06/14 00:18:37;;;;;;;10.47;6.30;;;16.20;64.70;;;;;;5105123;28;20977;-73
2022/06/14 00:21:06;;;;;;;9.50;4.83;;;16.10;64.70;;;;;;5110289;28;20456;-74
2022/06/14 00:23:34;;;;;;;11.73;6.47;;;16.10;64.80;;;;;;5110460;28;20448;-73
2022/06/14 00:26:03;;;;;;;9.73;5.77;;;16.10;64.80;;;;;;5109783;28;20464;-74
2022/06/14 00:28:33;;;;;;;9.80;5.80;;;16.00;64.90;;;;;;5110153;28;20490;-73
2022/06/14 00:31:05;;;;;;;9.10;4.73;;;16.00;64.90;;;;;;5107050;28;21252;-73
2022/06/14 00:33:33;;;;;;;8.20;4.70;;;16.00;65.00;;;;;;5101136;28;20526;-73
2022/06/14 00:36:04;;;;;;;10.57;5.40;;;16.00;64.90;;;;;;5107307;28;20452;-74
2022/06/14 00:38:35;;;;;;;8.17;5.60;;;15.90;64.90;;;;;;5105642;28;20513;-72
2022/06/14 00:41:05;;;;;;;8.50;4.87;;;15.80;65.10;;;;;;5101176;28;20467;-74
2022/06/14 00:43:34;;;;;;;8.87;4.97;;;15.80;65.20;;;;;;5107141;28;20537;-74
2022/06/14 00:46:17;;;;;;;7.93;4.93;;;15.90;65.20;;;;;;5097546;28;20472;-72
2022/06/14 00:48:55;;;;;;;10.53;5.20;;;15.80;65.10;;;;;;5108162;28;20483;-73
2022/06/14 00:51:26;;;;;;;9.50;5.40;;;15.80;65.10;;;;;;5109473;28;20496;-73
2022/06/14 00:54:00;;;;;;;9.20;5.23;;;15.80;65.20;;;;;;5107933;28;20469;-73
2022/06/14 00:56:34;;;;;;;9.53;4.77;;;15.80;65.40;;;;;;5106659;28;20819;-73
2022/06/14 00:59:08;;;;;;;10.17;5.67;;;15.80;65.30;;;;;;5098562;28;20452;-74
2022/06/14 01:01:41;;;;;;;8.53;5.57;;;15.80;65.20;;;;;;5105894;28;20497;-74
2022/06/14 01:04:12;;;;;;;12.13;5.27;;;15.70;65.10;;;;;;5108133;28;21513;-73
2022/06/14 01:06:51;;;;;;;7.80;4.73;;;15.70;65.20;;;;;;5108184;28;20440;-73
2022/06/14 01:09:23;;;;;;;9.80;5.10;;;15.60;65.30;;;;;;5107319;28;20493;-73
2022/06/14 01:11:56;;;;;;;7.70;4.83;;;15.60;65.30;;;;;;5105569;28;20464;-73
2022/06/14 01:14:30;;;;;;;10.63;4.80;;;15.60;65.20;;;;;;5094507;28;20480;-73
2022/06/14 01:17:00;;;;;;;9.20;4.70;;;15.60;65.20;;;;;;5088979;28;20467;-73
2022/06/14 01:19:28;;;;;;;10.60;5.93;;;15.50;65.20;;;;;;5106023;28;20468;-73
2022/06/14 01:22:26;;;;;;;10.33;5.83;;;15.50;65.20;;;;;;5100915;28;20441;-73
2022/06/14 01:24:55;;;;;;;8.90;5.13;;;15.40;65.10;;;;;;5105440;28;20504;-73
2022/06/14 01:27:25;;;;;;;7.60;4.93;;;15.30;65.00;;;;;;5108762;28;20441;-73
2022/06/14 01:30:01;;;;;;;9.13;4.90;;;15.20;65.20;;;;;;5087471;28;20571;-73
2022/06/14 01:32:33;;;;;;;9.50;5.67;;;15.10;65.20;;;;;;5103885;28;20484;-73
2022/06/14 01:35:06;;;;;;;8.73;4.80;;;15.10;65.30;;;;;;5100838;28;20455;-73
2022/06/14 01:37:36;;;;;;;10.60;5.60;;;15.00;65.30;;;;;;5107293;28;20471;-73
2022/06/14 01:40:07;;;;;;;10.83;6.03;;;15.00;65.30;;;;;;5103294;28;22223;-73
2022/06/14 01:42:48;;;;;;;11.73;6.40;;;15.00;65.50;;;;;;5106582;28;20463;-73
2022/06/14 01:45:27;;;;;;;11.83;5.50;;;15.00;65.70;;;;;;5097423;28;20477;-73
2022/06/14 01:48:00;;;;;;;8.37;5.20;;;15.00;65.90;;;;;;5107466;28;20448;-72
2022/06/14 01:53:30;;;;;;;11.73;5.83;;;15.10;66.00;;;;;;5102929;28;20555;-73
2022/06/14 01:56:09;;;;;;;8.00;5.00;;;15.10;65.90;;;;;;5107425;28;20452;-73
2022/06/14 01:58:46;;;;;;;10.83;4.90;;;15.20;65.80;;;;;;5106818;28;20531;-72
2022/06/14 02:01:19;;;;;;;9.63;5.60;;;15.10;65.60;;;;;;5096000;28;20493;-72
2022/06/14 02:06:44;;;;;;;8.43;5.10;;;15.00;65.50;;;;;;5104975;28;20487;-72
2022/06/14 02:09:17;;;;;;;10.40;5.53;;;14.90;65.50;;;;;;5106327;28;20464;-72
2022/06/14 02:11:46;;;;;;;9.97;5.17;;;14.90;65.50;;;;;;5081207;28;20496;-74
2022/06/14 02:14:21;;;;;;;9.40;5.33;;;14.90;65.70;;;;;;5103408;28;20978;-74
2022/06/14 02:16:55;;;;;;;7.47;4.90;;;14.90;65.70;;;;;;5106461;28;20468;-73
2022/06/14 02:19:31;;;;;;;8.70;5.10;;;14.80;65.70;;;;;;5099889;28;20452;-74
2022/06/14 02:22:06;;;;;;;13.20;4.97;;;14.80;65.60;;;;;;5100324;28;20956;-73
2022/06/14 02:24:41;;;;;;;8.37;4.80;;;14.80;65.60;;;;;;5082619;28;20463;-73
2022/06/14 02:27:15;;;;;;;9.67;5.30;;;14.70;65.80;;;;;;5106370;28;20562;-75
2022/06/14 02:29:47;;;;;;;8.00;4.30;;;14.70;65.80;;;;;;5105102;28;20987;-73
2022/06/14 02:32:19;;;;;;;8.20;5.40;;;14.70;65.80;;;;;;5099519;28;20467;-72
2022/06/14 02:34:52;;;;;;;10.10;6.07;;;14.70;65.70;;;;;;5102223;28;20464;-73
2022/06/14 02:37:26;;;;;;;8.33;5.00;;;14.60;65.70;;;;;;5106360;28;20471;-72
2022/06/14 02:39:57;;;;;;;11.10;5.27;;;14.60;65.80;;;;;;5101675;28;20594;-73
2022/06/14 02:42:30;;;;;;;9.50;6.03;;;14.60;65.80;;;;;;5107827;28;20533;-73
2022/06/14 02:45:04;;;;;;;7.60;4.87;;;14.60;65.70;;;;;;5103586;28;20508;-72
2022/06/14 02:47:38;;;;;;;8.70;4.60;;;14.50;65.70;;;;;;5104114;28;20464;-73
2022/06/14 02:50:12;;;;;;;8.97;4.90;;;14.50;65.70;;;;;;5101756;28;20490;-73
2022/06/14 02:52:46;;;;;;;10.67;5.33;;;14.40;65.80;;;;;;5106055;28;20470;-72
2022/06/14 02:55:21;;;;;;;9.80;5.47;;;14.40;65.80;;;;;;5106940;28;20460;-74
2022/06/14 02:57:52;;;;;;;10.77;5.37;;;14.30;65.80;;;;;;5104261;28;20457;-73
2022/06/14 03:00:25;;;;;;;10.60;5.80;;;14.30;65.80;;;;;;5105438;28;20494;-73
2022/06/14 03:02:57;;;;;;;8.97;6.07;;;14.30;66.00;;;;;;5106657;28;20986;-73
2022/06/14 03:05:32;;;;;;;8.30;5.07;;;14.30;66.00;;;;;;5105786;28;20468;-73
2022/06/14 03:08:04;;;;;;;8.70;4.83;;;14.30;66.00;;;;;;5099430;28;20456;-73
2022/06/14 03:10:40;;;;;;;8.70;5.33;;;14.30;66.00;;;;;;5103499;28;20475;-73
2022/06/14 03:13:18;;;;;;;9.60;4.90;;;14.30;66.00;;;;;;5101540;28;20488;-73
2022/06/14 03:15:54;;;;;;;7.90;5.20;;;14.20;66.00;;;;;;5102961;28;20476;-73
2022/06/14 03:18:31;;;;;;;8.50;5.13;;;14.20;66.00;;;;;;5106551;28;20495;-74
2022/06/14 03:21:11;;;;;;;10.10;6.00;;;14.20;66.00;;;;;;5106873;28;20576;-73
2022/06/14 03:23:45;;;;;;;9.40;5.60;;;14.10;66.00;;;;;;5091076;28;20457;-73
2022/06/14 03:26:22;;;;;;;7.93;4.90;;;14.10;66.00;;;;;;5109293;28;20478;-74
2022/06/14 03:28:55;;;;;;;9.23;5.10;;;14.10;66.10;;;;;;5105929;28;20475;-72
2022/06/14 03:31:33;;;;;;;8.03;4.97;;;14.10;66.20;;;;;;5108302;28;20854;-73
2022/06/14 03:34:06;;;;;;;10.80;5.70;;;14.10;66.20;;;;;;5100889;28;20475;-73
2022/06/14 03:36:34;;;;;;;12.77;6.23;;;14.00;66.10;;;;;;5109163;28;20448;-73
2022/06/14 03:39:07;;;;;;;9.50;5.60;;;14.00;66.30;;;;;;5109788;28;20451;-74
2022/06/14 03:41:40;;;;;;;9.97;5.23;;;14.10;66.40;;;;;;5088618;28;20884;-73
2022/06/14 03:44:08;;;;;;;8.97;5.07;;;14.10;66.40;;;;;;5104935;28;21023;-74
2022/06/14 03:46:39;;;;;;;7.77;5.10;;;14.10;66.30;;;;;;5103537;28;21008;-74
2022/06/14 03:49:10;;;;;;;11.83;5.70;;;14.00;66.20;;;;;;5100233;28;20469;-74
2022/06/14 03:51:55;;;;;;;8.80;5.50;;;14.00;66.30;;;;;;5107858;28;20481;-73
2022/06/14 03:54:52;;;;;;;8.87;5.70;;;14.00;66.40;;;;;;5108724;28;20513;-74
2022/06/14 03:57:37;;;;;;;9.23;5.03;;;14.00;66.50;;;;;;5108828;28;20491;-74
2022/06/14 04:00:13;;;;;;;10.83;5.60;;;14.10;66.60;;;;;;5102708;27;20491;-74
2022/06/14 04:02:56;;;;;;;9.90;5.40;;;14.10;66.60;;;;;;5107679;28;20485;-73
2022/06/14 04:05:41;;;;;;;13.67;4.90;;;14.10;66.40;;;;;;5109800;28;20477;-73
2022/06/14 04:08:21;;;;;;;7.97;5.10;;;14.10;66.50;;;;;;5106403;28;20456;-74
2022/06/14 04:10:57;;;;;;;9.47;4.57;;;14.20;66.60;;;;;;5093727;28;20472;-74
2022/06/14 04:13:37;;;;;;;12.90;5.90;;;14.20;66.70;;;;;;5110463;28;20465;-74
2022/06/14 04:16:10;;;;;;;7.80;5.10;;;14.30;66.70;;;;;;5108344;28;20870;-74
2022/06/14 04:18:47;;;;;;;9.27;5.53;;;14.30;66.60;;;;;;5100205;28;20489;-73
2022/06/14 04:21:35;;;;;;;10.73;5.07;;;14.30;66.60;;;;;;5109861;28;20494;-74
2022/06/14 04:24:10;;;;;;;9.27;5.90;;;14.40;66.60;;;;;;5110004;28;20462;-73
2022/06/14 04:26:44;;;;;;;10.67;6.00;;;14.40;66.60;;;;;;5109372;28;20561;-74
2022/06/14 04:29:19;;;;;;;8.20;5.03;;;14.50;66.70;;;;;;5107644;28;20483;-73
2022/06/14 04:31:51;;;;;;;9.07;5.30;;;14.60;66.80;;;;;;5109582;28;20470;-73
2022/06/14 04:34:26;;;;;;;9.27;5.60;;;14.70;66.90;;;;;;5105573;28;20460;-73
2022/06/14 04:37:00;;;;;;;7.63;5.20;;;14.90;66.90;;;;;;5107385;28;20987;-74
2022/06/14 04:39:35;;;;;;;10.80;5.30;;;15.00;66.90;;;;;;5103207;28;20447;-72
2022/06/14 04:42:08;;;;;;;8.77;5.33;;;15.20;66.80;;;;;;5101705;28;20449;-74
2022/06/14 04:44:44;;;;;;;9.37;5.50;;;15.30;66.70;;;;;;5107814;28;20503;-74
2022/06/14 04:47:17;;;;;;;9.30;5.47;;;15.50;66.70;;;;;;5107663;28;20472;-74
2022/06/14 04:49:49;;;;;;;7.87;4.93;;;15.70;66.70;;;;;;5089990;28;21043;-74
2022/06/14 04:52:23;;;;;;;8.93;5.53;;;15.80;66.70;;;;;;5109994;28;20459;-73
2022/06/14 04:54:58;;;;;;;6.70;4.97;;;16.00;66.70;;;;;;5095512;28;20452;-73
2022/06/14 04:57:32;;;;;;;11.57;5.50;;;16.20;66.70;;;;;;5098809;28;20999;-73
2022/06/14 05:00:08;;;;;;;10.77;6.20;;;16.40;66.70;;;;;;5094754;28;21262;-73
2022/06/14 05:02:38;;;;;;;8.57;5.90;;;16.50;66.60;;;;;;5102535;28;20468;-73
2022/06/14 05:05:09;;;;;;;10.80;5.43;;;16.70;66.50;;;;;;5102474;28;20582;-73
2022/06/14 05:07:42;;;;;;;11.70;5.60;;;16.80;66.50;;;;;;5103154;28;20476;-73
2022/06/14 05:10:16;;;;;;;12.73;5.60;;;17.00;66.50;;;;;;5103290;28;20477;-73
2022/06/14 05:12:52;;;;;;;10.83;5.90;;;17.10;66.60;;;;;;5105117;28;20449;-73
2022/06/14 05:15:26;;;;;;;10.73;7.13;;;17.30;66.50;;;;;;5104368;28;20527;-73
2022/06/14 05:18:00;;;;;;;14.43;6.27;;;17.40;66.60;;;;;;5109184;28;20464;-73
2022/06/14 05:20:35;;;;;;;9.90;5.70;;;17.60;66.70;;;;;;5091097;28;20492;-73
2022/06/14 05:23:09;;;;;;;9.70;6.40;;;17.80;66.80;;;;;;5100299;28;20817;-73
2022/06/14 05:25:47;;;;;;;13.67;6.53;;;17.90;66.70;;;;;;5109233;28;20448;-73
2022/06/14 05:28:22;;;;;;;10.60;6.33;;;18.10;66.60;;;;;;5105134;28;20494;-73
2022/06/14 05:30:56;;;;;;;9.03;5.63;;;18.20;66.50;;;;;;5105274;28;20484;-73
2022/06/14 05:33:37;;;;;;;8.80;5.10;;;18.30;66.70;;;;;;5107298;28;20468;-74
2022/06/14 05:36:11;;;;;;;8.70;6.00;;;18.50;67.10;;;;;;5107025;28;20535;-74
2022/06/14 05:38:47;;;;;;;10.10;5.90;;;18.80;67.80;;;;;;5105557;28;20442;-74
2022/06/14 05:41:21;;;;;;;9.50;5.40;;;19.40;67.80;;;;;;5105465;28;20973;-73
2022/06/14 05:43:53;;;;;;;8.77;5.50;;;20.40;66.20;;;;;;5105644;28;20797;-73
2022/06/14 05:46:27;;;;;;;11.53;5.33;;;21.50;64.00;;;;;;5103075;28;20480;-74
2022/06/14 05:49:02;;;;;;;11.93;4.43;;;22.70;61.90;;;;;;5106920;28;20991;-74
2022/06/14 05:51:35;;;;;;;9.80;5.47;;;23.80;60.00;;;;;;5107308;28;20481;-75
2022/06/14 05:54:10;;;;;;;8.97;4.40;;;24.80;58.60;;;;;;5106524;28;20515;-73
2022/06/14 05:56:42;;;;;;;7.50;4.67;;;25.60;57.40;;;;;;5096946;28;20477;-76
2022/06/14 05:59:19;;;;;;;8.13;4.93;;;26.40;56.30;;;;;;5108375;28;20815;-75
2022/06/14 06:01:56;;;;;;;9.20;4.50;;;27.00;55.20;;;;;;5106454;28;20482;-75
2022/06/14 06:04:29;;;;;;;13.30;4.90;;;27.60;54.30;;;;;;5105337;28;20487;-73
2022/06/14 06:07:02;;;;;;;9.93;4.63;;;28.00;53.20;;;;;;5106520;28;20454;-73
2022/06/14 06:09:34;;;;;;;10.60;4.40;;;27.90;52.60;;;;;;5104798;28;20451;-72
2022/06/14 06:12:08;;;;;;;8.80;4.67;;;27.40;52.50;;;;;;5101041;28;20469;-73
2022/06/14 06:14:41;;;;;;;10.30;4.33;;;26.70;52.90;;;;;;5105483;28;20453;-72
2022/06/14 06:17:16;;;;;;;10.00;4.50;;;26.00;53.20;;;;;;5087525;28;20472;-73
2022/06/14 06:19:51;;;;;;;8.97;4.87;;;25.30;53.70;;;;;;5106709;28;20477;-71
2022/06/14 06:22:23;;;;;;;10.60;4.97;;;24.70;54.10;;;;;;5109019;28;20442;-73
2022/06/14 06:24:55;;;;;;;6.20;3.93;;;24.20;54.90;;;;;;5107852;28;20450;-73
2022/06/14 06:27:28;;;;;;;10.40;4.03;;;23.70;55.40;;;;;;5109188;28;20485;-73
2022/06/14 06:30:01;;;;;;;8.60;4.13;;;23.30;56.00;;;;;;5108142;28;20468;-73
2022/06/14 06:32:32;;;;;;;6.60;3.67;;;22.90;56.40;;;;;;5108313;28;20473;-71
2022/06/14 06:35:03;;;;;;;7.20;3.90;;;22.50;56.90;;;;;;5104038;28;20452;-72
2022/06/14 06:37:37;;;;;;;8.50;4.50;;;22.10;57.30;;;;;;5109097;28;20484;-72
2022/06/14 06:40:10;;;;;;;9.43;4.70;;;21.70;57.60;;;;;;5101497;28;20490;-71
2022/06/14 06:42:42;;;;;;;8.80;3.93;;;21.40;58.30;;;;;;5108886;28;20476;-71
2022/06/14 06:45:17;;;;;;;7.23;4.10;;;21.10;58.70;;;;;;5098728;28;20818;-72
2022/06/14 06:47:52;;;;;;;6.80;4.60;;;20.80;59.20;;;;;;5106109;28;20471;-73
2022/06/14 06:50:24;;;;;;;9.33;4.10;;;20.50;59.40;;;;;;5108915;28;21006;-72
2022/06/14 06:53:02;;;;;;;10.27;4.70;;;20.30;60.00;;;;;;5099304;28;20453;-73
2022/06/14 06:55:40;;;;;;;7.07;4.37;;;20.10;60.50;;;;;;5107118;28;20445;-71
2022/06/14 06:58:14;;;;;;;9.50;4.83;;;20.00;60.60;;;;;;5101097;28;20452;-72
2022/06/14 07:00:45;;;;;;;6.57;4.30;;;19.90;60.90;;;;;;5081353;28;20472;-73
2022/06/14 07:03:21;;;;;;;11.53;4.07;;;19.80;61.20;;;;;;5108403;28;20448;-73
2022/06/14 07:05:53;;;;;;;7.73;3.87;;;19.80;61.50;;;;;;5109496;28;20453;-73
2022/06/14 07:08:33;;;;;;;6.90;3.70;;;19.80;61.70;;;;;;5111913;28;20495;-73
2022/06/14 07:11:03;;;;;;;9.37;4.73;;;19.80;62.10;;;;;;5110334;28;20992;-73
2022/06/14 07:13:46;;;;;;;10.40;3.80;;;19.70;62.00;;;;;;5111747;28;20443;-71
2022/06/14 07:16:21;;;;;;;14.47;4.20;;;19.70;62.10;;;;;;5106377;28;20471;-73
2022/06/14 07:18:54;;;;;;;12.23;4.17;;;19.70;62.10;;;;;;5112160;28;20971;-72
2022/06/14 07:21:26;;;;;;;8.20;4.40;;;19.70;62.20;;;;;;5105273;28;20476;-72
2022/06/14 07:23:59;;;;;;;6.83;3.73;;;19.80;62.20;;;;;;5110125;28;20466;-73
2022/06/14 07:26:30;;;;;;;12.10;3.73;;;19.70;62.10;;;;;;5100500;28;20821;-72
2022/06/14 07:29:03;;;;;;;8.03;3.73;;;19.70;62.20;;;;;;5103333;28;20491;-72
2022/06/14 07:31:38;;;;;;;7.17;3.63;;;19.70;62.20;;;;;;5105428;28;20482;-73
2022/06/14 07:34:08;;;;;;;9.20;3.77;;;19.80;62.20;;;;;;5097194;28;20506;-72
2022/06/14 07:36:49;;;;;;;9.53;3.60;;;19.80;62.30;;;;;;5108748;28;20448;-72
2022/06/14 07:39:24;;;;;;;14.03;3.50;;;19.90;62.40;;;;;;5110242;28;20456;-72
2022/06/14 07:42:00;;;;;;;9.17;3.83;;;19.90;62.30;;;;;;5109681;28;20451;-71
2022/06/14 07:44:36;;;;;;;9.17;3.73;;;20.00;62.20;;;;;;5109512;28;20451;-71
2022/06/14 07:47:14;;;;;;;9.87;3.93;;;20.00;62.10;;;;;;5107810;28;20478;-73
2022/06/14 07:49:53;;;;;;;9.17;3.23;;;20.10;61.80;;;;;;5109086;28;20489;-72
2022/06/14 07:52:26;;;;;;;10.00;3.67;;;20.10;61.80;;;;;;5109082;28;20957;-74
2022/06/14 07:55:03;;;;;;;9.30;3.73;;;20.20;61.70;;;;;;5110359;28;20533;-72
2022/06/14 07:57:34;;;;;;;6.93;3.43;;;20.20;61.50;;;;;;5094501;28;20460;-72
2022/06/14 08:02:54;;;;;;;7.13;3.43;;;20.30;61.50;;;;;;5091606;28;20461;-72
2022/06/14 08:05:31;;;;;;;12.13;3.20;;;20.40;61.40;;;;;;5111874;28;20998;-72
2022/06/14 08:08:03;;;;;;;7.23;4.17;;;20.40;61.40;;;;;;5105833;28;20455;-72
2022/06/14 08:10:37;;;;;;;8.80;3.67;;;20.50;61.30;;;;;;5111309;28;20533;-73
2022/06/14 08:13:08;;;;;;;6.60;3.20;;;20.50;61.10;;;;;;5110997;28;20448;-73
2022/06/14 08:15:39;;;;;;;15.53;7.20;;;20.50;61.00;;;;;;5091586;28;20472;-73
2022/06/14 08:18:14;;;;;;;11.77;5.57;;;20.50;61.10;;;;;;5111429;28;20454;-73
2022/06/14 08:20:48;;;;;;;7.87;3.90;;;20.60;61.10;;;;;;5109935;28;20472;-72
2022/06/14 08:23:21;;;;;;;9.43;3.90;;;20.60;60.90;;;;;;5110775;28;20824;-72
2022/06/14 08:25:51;;;;;;;7.83;3.50;;;20.60;60.70;;;;;;5107700;28;20461;-72
2022/06/14 08:28:24;;;;;;;9.17;3.67;;;20.50;60.80;;;;;;5111108;28;20473;-72
2022/06/14 08:30:58;;;;;;;9.40;3.27;;;20.50;60.70;;;;;;5109103;28;20567;-72
2022/06/14 08:33:32;;;;;;;8.60;3.87;;;20.50;60.70;;;;;;5107983;28;20523;-72
2022/06/14 08:36:08;;;;;;;7.70;3.57;;;20.50;60.50;;;;;;5105975;28;20462;-72
2022/06/14 08:38:41;;;;;;;9.77;3.57;;;20.50;60.30;;;;;;5110854;28;20459;-73
2022/06/14 08:41:28;;;;;;;6.77;3.33;;;20.50;60.30;;;;;;5110545;28;20482;-73
2022/06/14 08:44:03;;;;;;;9.80;3.40;;;20.60;60.20;;;;;;5104972;28;20447;-72
2022/06/14 08:46:41;;;;;;;6.30;3.00;;;20.60;60.10;;;;;;5105623;28;20466;-73
2022/06/14 08:49:20;;;;;;;7.83;3.13;;;20.60;60.10;;;;;;5110433;28;20539;-73
2022/06/14 08:52:11;;;;;;;9.07;3.63;;;20.60;60.20;;;;;;5110181;28;20486;-72
2022/06/14 08:55:10;;;;;;;8.30;3.80;;;20.70;60.20;;;;;;5110620;28;20455;-72
2022/06/14 08:58:08;;;;;;;7.87;2.87;;;20.70;60.20;;;;;;5106448;28;20538;-72
2022/06/14 09:00:54;;;;;;;5.23;2.53;;;20.80;59.90;;;;;;5108873;28;20470;-72
2022/06/14 09:04:01;;;;;;;7.23;2.50;;;20.80;59.80;;;;;;5085078;28;20904;-72
2022/06/14 09:06:52;;;;;;;8.20;2.60;;;20.80;59.60;;;;;;5109677;28;20455;-75
2022/06/14 09:09:53;;;;;;;6.23;2.87;;;20.80;59.50;;;;;;5109317;28;20504;-73
2022/06/14 09:13:16;;;;;;;26.40;3.80;;;20.80;59.30;;;;;;5105958;28;20451;-72
2022/06/14 09:16:20;;;;;;;8.90;3.67;;;20.80;58.80;;;;;;5026062;28;20486;-73
2022/06/14 09:19:00;;;;;;;11.60;3.70;;;20.80;59.00;;;;;;5026452;28;20455;-73
2022/06/14 09:21:39;;;;;;;6.43;2.30;;;20.80;58.70;;;;;;5070582;28;20473;-73
2022/06/14 09:24:14;;;;;;;9.20;2.83;;;20.80;58.80;;;;;;5104832;28;20454;-73
2022/06/14 09:27:07;;;;;;;7.80;2.90;;;20.80;58.70;;;;;;5109873;28;20447;-74
2022/06/14 09:29:58;;;;;;;6.40;2.60;;;20.80;58.70;;;;;;5103873;28;20481;-72
2022/06/14 09:33:10;;;;;;;7.13;2.83;;;20.80;58.80;;;;;;5108857;28;20906;-72
2022/06/14 09:36:07;;;;;;;6.40;3.10;;;20.90;58.70;;;;;;5089868;28;20952;-73
2022/06/14 09:38:54;;;;;;;6.87;2.77;;;20.90;58.40;;;;;;5088747;28;20461;-72
2022/06/14 09:41:38;;;;;;;9.00;3.20;;;20.90;58.20;;;;;;5109420;28;20487;-73
2022/06/14 09:44:49;;;;;;;6.33;3.07;;;21.00;57.90;;;;;;5103967;28;20442;-71
2022/06/14 09:47:36;;;;;;;8.57;3.07;;;21.00;57.40;;;;;;5068297;28;20457;-71
2022/06/14 09:50:55;;;;;;;6.57;2.80;;;21.00;57.70;;;;;;5109638;28;20502;-72
2022/06/14 09:53:54;;;;;;;8.20;3.30;;;21.00;57.60;;;;;;5104641;28;20503;-73
2022/06/14 09:56:37;;;;;;;6.90;2.87;;;21.10;57.20;;;;;;5103482;28;20444;-73
2022/06/14 09:59:44;;;;;;;5.80;2.57;;;21.10;57.20;;;;;;5103250;28;20434;-73
2022/06/14 10:02:19;;;;;;;5.07;2.80;;;21.20;57.00;;;;;;5098419;28;20469;-72
2022/06/14 10:05:10;;;;;;;7.80;2.90;;;21.20;56.60;;;;;;5107816;28;20522;-73
2022/06/14 10:07:56;;;;;;;10.80;2.90;;;21.30;56.40;;;;;;5108908;28;20542;-73
2022/06/14 10:10:39;;;;;;;8.37;2.80;;;21.40;56.40;;;;;;5109241;28;20568;-73
2022/06/14 10:13:52;;;;;;;5.40;2.10;;;21.40;55.80;;;;;;5107876;28;20821;-72
2022/06/14 10:16:36;;;;;;;7.97;2.60;;;21.50;55.80;;;;;;5106351;28;20527;-73
2022/06/14 10:19:15;;;;;;;5.67;2.73;;;21.60;55.50;;;;;;5104263;28;20872;-73
2022/06/14 10:21:48;;;;;;;5.47;2.43;;;21.60;55.30;;;;;;5107364;28;20481;-73
2022/06/14 10:24:22;;;;;;;5.77;2.00;;;21.60;55.20;;;;;;5107604;28;20511;-73
2022/06/14 10:30:11;;;;;;;5.90;2.43;;;21.60;54.80;;;;;;5102927;28;20524;-71
2022/06/14 10:33:12;;;;;;;6.97;2.13;;;21.60;54.70;;;;;;5101567;28;20896;-73
2022/06/14 10:35:53;;;;;;;7.20;1.97;;;21.70;54.30;;;;;;5101861;28;20460;-73
2022/06/14 10:39:02;;;;;;;5.70;2.40;;;21.80;54.00;;;;;;5108651;28;20460;-73
2022/06/14 10:41:39;;;;;;;5.23;1.97;;;21.80;52.70;;;;;;5070749;28;21065;-72
2022/06/14 10:44:22;;;;;;;9.17;2.87;;;21.80;53.60;;;;;;5104040;28;20956;-73
2022/06/14 10:47:01;;;;;;;5.00;2.07;;;21.90;53.40;;;;;;5098377;28;20465;-72
2022/06/14 10:50:07;;;;;;;6.27;2.40;;;22.00;53.10;;;;;;5104902;28;20451;-73
2022/06/14 10:52:54;;;;;;;5.90;2.57;;;22.00;53.10;;;;;;5100176;28;20452;-72
2022/06/14 10:55:49;;;;;;;7.10;2.20;;;22.10;52.90;;;;;;5102127;28;20453;-71
2022/06/14 10:58:42;;;;;;;5.93;1.60;;;22.10;52.80;;;;;;5108292;28;20459;-72
2022/06/14 11:01:24;;;;;;;6.90;1.60;;;22.10;52.60;;;;;;5112218;28;20483;-72
2022/06/14 11:03:59;;;;;;;7.00;2.17;;;22.10;52.60;;;;;;5112264;28;20459;-71
2022/06/14 11:07:02;;;;;;;5.70;2.10;;;22.10;52.70;;;;;;5102855;28;20471;-72
2022/06/14 11:09:41;;;;;;;5.20;2.30;;;22.10;52.50;;;;;;5090444;28;20502;-72
2022/06/14 11:12:36;;;;;;;7.33;2.33;;;22.10;52.40;;;;;;5096304;28;20467;-73
2022/06/14 11:15:12;;;;;;;4.70;2.03;;;22.10;52.30;;;;;;5101397;28;20475;-73
2022/06/14 11:17:59;;;;;;;5.70;2.03;;;22.10;52.60;;;;;;5108786;28;21000;-73
2022/06/14 11:20:48;;;;;;;5.20;1.93;;;22.20;52.60;;;;;;5108647;28;20804;-70
2022/06/14 11:23:22;;;;;;;7.87;2.50;;;22.20;52.40;;;;;;5105820;28;20448;-73
2022/06/14 11:25:56;;;;;;;7.23;2.33;;;22.30;52.50;;;;;;5112229;28;20458;-73
2022/06/14 11:28:35;;;;;;;5.53;2.60;;;22.30;52.40;;;;;;5112210;28;20515;-71
2022/06/14 11:31:10;;;;;;;6.50;2.57;;;22.30;52.40;;;;;;5088773;28;21157;-73
2022/06/14 11:33:51;;;;;;;5.50;1.80;;;22.40;52.30;;;;;;5109660;28;20957;-74
2022/06/14 11:36:47;;;;;;;4.50;2.00;;;22.40;52.20;;;;;;5111591;28;20823;-73
2022/06/14 11:39:31;;;;;;;8.97;2.43;;;22.40;52.20;;;;;;5112428;28;20961;-71
2022/06/14 11:42:04;;;;;;;6.23;2.07;;;22.40;52.20;;;;;;5108633;28;20450;-73
2022/06/14 11:44:49;;;;;;;7.03;2.00;;;22.40;52.10;;;;;;5111977;28;20992;-73
2022/06/14 11:47:25;;;;;;;5.50;2.30;;;22.50;51.90;;;;;;5109610;28;20872;-73
2022/06/14 11:50:01;;;;;;;5.60;2.30;;;22.50;51.90;;;;;;5101797;28;22303;-72
2022/06/14 11:52:51;;;;;;;6.33;2.20;;;22.60;51.90;;;;;;5105788;28;20497;-72
2022/06/14 11:55:27;;;;;;;6.73;2.53;;;22.60;51.80;;;;;;5092203;28;20474;-72
2022/06/14 11:58:09;;;;;;;4.83;1.70;;;22.70;52.00;;;;;;5104909;28;20466;-72
2022/06/14 12:00:55;;;;;;;6.23;1.70;;;22.70;51.50;;;;;;5106000;28;20517;-72
2022/06/14 12:03:58;;;;;;;9.77;1.97;;;22.80;51.10;;;;;;5105053;28;20462;-72
2022/06/14 12:06:38;;;;;;;5.00;2.10;;;22.70;50.80;;;;;;5098770;28;20470;-72
2022/06/14 12:09:29;;;;;;;6.90;2.10;;;22.70;50.70;;;;;;5107927;28;20456;-71
2022/06/14 12:12:06;;;;;;;10.03;2.27;;;22.70;50.80;;;;;;5102705;28;20497;-72
2022/06/14 12:14:54;;;;;;;6.13;1.83;;;22.70;50.90;;;;;;5107347;28;20869;-72
2022/06/14 12:17:27;;;;;;;8.10;3.00;;;22.80;51.10;;;;;;5103781;28;20470;-72
2022/06/14 12:20:04;;;;;;;4.70;1.90;;;22.90;51.10;;;;;;5107023;28;20479;-71
2022/06/14 12:22:38;;;;;;;6.60;1.90;;;23.00;51.10;;;;;;5107221;28;20447;-73
2022/06/14 12:28:03;;;;;;;6.90;1.90;;;23.10;51.20;;;;;;5098683;28;20468;-73
2022/06/14 12:30:34;;;;;;;6.00;2.20;;;23.20;51.00;;;;;;5093782;28;20465;-72
2022/06/14 12:33:07;;;;;;;5.13;1.87;;;23.20;50.80;;;;;;5102560;28;20884;-71
2022/06/14 12:35:43;;;;;;;4.93;2.20;;;23.20;50.90;;;;;;5093345;28;20978;-71
2022/06/14 12:38:17;;;;;;;6.20;2.10;;;23.20;50.80;;;;;;5082589;28;20468;-71
2022/06/14 12:40:52;;;;;;;8.63;2.07;;;23.30;50.70;;;;;;5093856;28;20482;-72
2022/06/14 12:43:24;;;;;;;7.37;2.50;;;23.30;50.20;;;;;;5099892;28;20452;-71
2022/06/14 12:45:57;;;;;;;12.30;2.63;;;23.30;50.20;;;;;;5096258;28;20476;-72
2022/06/14 12:48:36;;;;;;;8.17;2.07;;;23.40;50.00;;;;;;5101749;28;20442;-73
2022/06/14 12:51:11;;;;;;;8.80;2.10;;;23.40;49.90;;;;;;5109600;28;20487;-71
2022/06/14 12:53:44;;;;;;;5.13;1.90;;;23.50;49.90;;;;;;5090365;28;20809;-71
2022/06/14 12:56:18;;;;;;;5.20;2.00;;;23.60;49.50;;;;;;5105536;28;20492;-71
2022/06/14 12:58:55;;;;;;;5.93;2.27;;;23.60;49.20;;;;;;5098050;28;20447;-71
2022/06/14 13:01:35;;;;;;;7.80;2.00;;;23.60;49.30;;;;;;5095772;28;20471;-72
2022/06/14 13:04:09;;;;;;;5.17;2.30;;;23.60;49.30;;;;;;5106610;28;20441;-73
2022/06/14 13:06:55;;;;;;;5.37;2.63;;;23.70;49.60;;;;;;5095424;28;20503;-73
2022/06/14 13:09:31;;;;;;;7.60;2.40;;;23.80;49.60;;;;;;5108687;28;20456;-72
2022/06/14 13:12:18;;;;;;;7.00;2.17;;;23.80;49.60;;;;;;5099551;28;20465;-72
2022/06/14 13:14:56;;;;;;;7.23;2.20;;;23.80;49.10;;;;;;5099403;28;20502;-71
2022/06/14 13:17:51;;;;;;;6.70;2.23;;;23.80;48.70;;;;;;5098910;28;20470;-72
2022/06/14 13:20:29;;;;;;;7.50;2.10;;;23.80;48.50;;;;;;5100081;28;20490;-71
2022/06/14 13:23:10;;;;;;;7.97;1.93;;;23.80;48.70;;;;;;5105944;28;20487;-73
2022/06/14 13:26:08;;;;;;;4.90;2.03;;;23.80;47.70;;;;;;5109901;28;20539;-71
2022/06/14 13:28:57;;;;;;;4.17;1.70;;;23.80;48.20;;;;;;5097120;28;20993;-73
2022/06/14 13:31:47;;;;;;;5.00;1.93;;;23.80;48.20;;;;;;5107890;28;20568;-73
2022/06/14 13:34:28;;;;;;;10.50;2.07;;;23.70;48.30;;;;;;5107775;28;20454;-73
2022/06/14 13:37:11;;;;;;;5.47;2.10;;;23.80;47.90;;;;;;5102129;28;20525;-73
2022/06/14 13:39:49;;;;;;;7.27;2.53;;;23.80;47.80;;;;;;5106740;28;20449;-73
2022/06/14 13:42:28;;;;;;;9.20;2.00;;;23.80;47.50;;;;;;5091530;28;20449;-73
2022/06/14 13:45:03;;;;;;;5.00;2.30;;;23.90;47.30;;;;;;5107462;28;20456;-72
2022/06/14 13:47:40;;;;;;;5.00;1.80;;;23.90;47.30;;;;;;5106855;28;20881;-73
2022/06/14 13:50:17;;;;;;;4.60;2.00;;;24.00;47.40;;;;;;5104191;28;20470;-71
2022/06/14 13:52:51;;;;;;;5.40;2.07;;;24.10;47.30;;;;;;5106779;28;21037;-71
2022/06/14 13:55:26;;;;;;;4.83;2.23;;;24.10;47.30;;;;;;5108808;28;20441;-73